Time;durP1;ratioP1;P1;durP2;ratioP2;P2;SDS_P1;SDS_P2;PMS_P1;PMS_P2;Temp;Humidity;BMP_temperature;BMP_pressure;BME280_temperature;BME280_humidity;BME280_pressure;Samples;Min_cycle;Max_cycle;Signal;HPM_P1;HPM_P2
2023/03/26 00:01:25;;;;;;;11.70;2.17;;;;;;;;;;5066343;28;20111;-72
2023/03/26 00:03:56;;;;;;;11.43;2.03;;;;;;;;;;5064191;28;20050;-72
2023/03/26 00:06:24;;;;;;;10.27;2.03;;;;;;;;;;5066980;28;20408;-72
2023/03/26 00:08:51;;;;;;;9.20;2.67;;;;;;;;;;5066714;28;20029;-72
2023/03/26 00:11:18;;;;;;;9.13;2.03;;;;;;;;;;5064556;28;20101;-72
2023/03/26 00:13:45;;;;;;;5.55;1.95;;;;;;;;;;5066813;28;20032;-72
2023/03/26 00:16:12;;;;;;;11.35;2.15;;;;;;;;;;5065101;28;20032;-72
2023/03/26 00:18:41;;;;;;;9.55;2.10;;;;;;;;;;5064985;28;20515;-72
2023/03/26 00:21:07;;;;;;;8.20;1.95;;;;;;;;;;5065375;28;20538;-72
2023/03/26 00:23:34;;;;;;;6.57;1.55;;;;;;;;;;5064508;28;20808;-72
2023/03/26 00:26:00;;;;;;;13.40;2.50;;;;;;;;;;5065721;28;20032;-72
2023/03/26 00:28:26;;;;;;;14.93;2.15;;;;;;;;;;5062377;28;20028;-72
2023/03/26 00:31:00;;;;;;;9.05;1.92;;;;;;;;;;5044505;28;20017;-72
2023/03/26 00:33:26;;;;;;;5.75;1.85;;;;;;;;;;5045552;28;20029;-72
2023/03/26 00:35:53;;;;;;;9.50;2.63;;;;;;;;;;5044879;28;20033;-72
2023/03/26 00:38:24;;;;;;;8.18;2.90;;;;;;;;;;5045691;28;20037;-72
2023/03/26 00:40:51;;;;;;;12.05;2.80;;;;;;;;;;5048664;28;20128;-72
2023/03/26 00:43:17;;;;;;;7.82;2.42;;;;;;;;;;5062823;28;20503;-72
2023/03/26 00:45:53;;;;;;;10.30;2.65;;;;;;;;;;5064085;28;20515;-72
2023/03/26 00:48:21;;;;;;;6.30;3.00;;;;;;;;;;5065894;28;20032;-72
2023/03/26 00:50:47;;;;;;;6.32;2.15;;;;;;;;;;5064826;28;20465;-72
2023/03/26 00:53:14;;;;;;;8.82;1.70;;;;;;;;;;5053819;28;20242;-72
2023/03/26 00:55:41;;;;;;;8.80;2.00;;;;;;;;;;5065680;28;20021;-72
2023/03/26 00:58:11;;;;;;;15.60;2.15;;;;;;;;;;5065351;28;20522;-72
2023/03/26 01:00:57;;;;;;;3.95;1.50;;;;;;;;;;5063160;28;20036;-72
2023/03/26 01:03:24;;;;;;;10.02;1.70;;;;;;;;;;5064856;28;20100;-72
2023/03/26 01:05:57;;;;;;;5.82;1.70;;;;;;;;;;5065429;28;20025;-72
2023/03/26 01:08:46;;;;;;;8.43;1.88;;;;;;;;;;5065241;28;20032;-72
2023/03/26 01:11:22;;;;;;;6.95;1.95;;;;;;;;;;5063561;28;20434;-72
2023/03/26 01:14:01;;;;;;;6.45;1.70;;;;;;;;;;5065680;28;20033;-72
2023/03/26 01:16:38;;;;;;;14.00;2.15;;;;;;;;;;5065626;28;20846;-72
2023/03/26 01:19:11;;;;;;;9.73;2.00;;;;;;;;;;5063925;28;20064;-71
2023/03/26 01:21:37;;;;;;;8.63;2.15;;;;;;;;;;5064771;28;20592;-71
2023/03/26 01:24:08;;;;;;;9.68;2.00;;;;;;;;;;5076628;28;20032;-72
2023/03/26 01:26:43;;;;;;;9.27;2.45;;;;;;;;;;5063425;28;20123;-72
2023/03/26 01:29:19;;;;;;;9.77;2.17;;;;;;;;;;5063288;28;20041;-72
2023/03/26 01:31:59;;;;;;;9.02;1.98;;;;;;;;;;5064211;28;20031;-72
2023/03/26 01:34:37;;;;;;;14.07;2.58;;;;;;;;;;5056763;28;20032;-72
2023/03/26 01:37:29;;;;;;;8.75;2.42;;;;;;;;;;5065065;28;20020;-72
2023/03/26 01:40:03;;;;;;;9.75;2.45;;;;;;;;;;5065000;28;20435;-71
2023/03/26 01:42:38;;;;;;;9.85;2.08;;;;;;;;;;5064738;28;20123;-72
2023/03/26 01:45:17;;;;;;;6.72;2.53;;;;;;;;;;5065609;28;20098;-72
2023/03/26 01:47:44;;;;;;;9.48;2.38;;;;;;;;;;5065640;28;20058;-72
2023/03/26 01:50:10;;;;;;;12.68;2.40;;;;;;;;;;5064676;28;20481;-72
2023/03/26 01:52:35;;;;;;;10.32;2.35;;;;;;;;;;5065485;28;20021;-72
2023/03/26 01:55:01;;;;;;;12.73;2.45;;;;;;;;;;5065241;28;20067;-72
2023/03/26 01:57:42;;;;;;;15.02;2.70;;;;;;;;;;5064472;28;20526;-72
2023/03/26 02:00:19;;;;;;;12.27;2.20;;;;;;;;;;5063836;28;20128;-73
2023/03/26 02:03:07;;;;;;;8.20;2.17;;;;;;;;;;5063271;28;20046;-72
2023/03/26 02:05:47;;;;;;;8.45;2.03;;;;;;;;;;5063283;28;20040;-72
2023/03/26 02:08:25;;;;;;;10.68;2.35;;;;;;;;;;5062542;28;20044;-72
2023/03/26 02:10:56;;;;;;;7.35;2.15;;;;;;;;;;5059897;28;20048;-72
2023/03/26 02:13:22;;;;;;;17.73;3.42;;;;;;;;;;5064394;28;20513;-72
2023/03/26 02:16:05;;;;;;;11.40;2.22;;;;;;;;;;5064220;28;20627;-72
2023/03/26 02:18:37;;;;;;;5.75;2.22;;;;;;;;;;5067045;28;20047;-72
2023/03/26 02:21:11;;;;;;;9.57;1.98;;;;;;;;;;5068386;28;20029;-72
2023/03/26 02:23:37;;;;;;;3.92;1.65;;;;;;;;;;5068788;28;20032;-72
2023/03/26 02:26:06;;;;;;;6.22;1.60;;;;;;;;;;5063470;28;20080;-72
2023/03/26 02:28:31;;;;;;;6.07;1.65;;;;;;;;;;5067469;28;20103;-72
2023/03/26 02:31:00;;;;;;;4.28;1.63;;;;;;;;;;5068562;28;20095;-72
2023/03/26 02:33:29;;;;;;;12.80;2.17;;;;;;;;;;5067236;28;20577;-72
2023/03/26 02:35:58;;;;;;;11.57;2.08;;;;;;;;;;5066160;28;20033;-72
2023/03/26 02:38:25;;;;;;;9.48;1.50;;;;;;;;;;5068341;28;20123;-72
2023/03/26 02:40:51;;;;;;;7.70;2.15;;;;;;;;;;5067750;28;20048;-72
2023/03/26 02:43:16;;;;;;;11.40;2.28;;;;;;;;;;5068268;28;20028;-71
2023/03/26 02:45:42;;;;;;;12.48;2.33;;;;;;;;;;5068158;28;20055;-71
2023/03/26 02:48:07;;;;;;;10.00;2.15;;;;;;;;;;5067780;28;20128;-71
2023/03/26 02:50:35;;;;;;;8.52;2.28;;;;;;;;;;5066750;28;20747;-71
2023/03/26 02:53:01;;;;;;;6.43;1.65;;;;;;;;;;5067997;28;20051;-71
2023/03/26 02:55:26;;;;;;;11.77;2.22;;;;;;;;;;5065384;28;20032;-71
2023/03/26 02:57:52;;;;;;;6.90;2.33;;;;;;;;;;5067700;28;20090;-72
2023/03/26 03:00:20;;;;;;;15.30;3.13;;;;;;;;;;5066292;28;20474;-71
2023/03/26 03:02:49;;;;;;;10.25;2.25;;;;;;;;;;5067634;28;20037;-72
2023/03/26 03:05:16;;;;;;;4.95;1.83;;;;;;;;;;5068330;28;20048;-72
2023/03/26 03:07:45;;;;;;;9.40;2.00;;;;;;;;;;5066490;28;20052;-72
2023/03/26 03:10:12;;;;;;;9.30;1.88;;;;;;;;;;5067912;28;20095;-72
2023/03/26 03:12:38;;;;;;;8.98;1.98;;;;;;;;;;5066219;28;20093;-72
2023/03/26 03:15:04;;;;;;;8.65;2.28;;;;;;;;;;5067629;28;20052;-72
2023/03/26 03:17:29;;;;;;;11.50;2.38;;;;;;;;;;5066194;28;20025;-72
2023/03/26 03:19:55;;;;;;;7.57;1.88;;;;;;;;;;5066820;28;20051;-72
2023/03/26 03:22:20;;;;;;;7.72;1.92;;;;;;;;;;5068017;28;20024;-72
2023/03/26 03:24:45;;;;;;;11.68;3.08;;;;;;;;;;5046624;28;20075;-72
2023/03/26 03:27:11;;;;;;;12.32;2.10;;;;;;;;;;5046007;28;20616;-72
2023/03/26 03:29:37;;;;;;;5.20;2.20;;;;;;;;;;5046293;28;20036;-72
2023/03/26 03:32:03;;;;;;;9.50;1.90;;;;;;;;;;5047020;28;20037;-72
2023/03/26 03:34:28;;;;;;;8.15;1.88;;;;;;;;;;5047377;28;20025;-72
2023/03/26 03:36:53;;;;;;;6.07;1.73;;;;;;;;;;5045406;28;20032;-72
2023/03/26 03:39:19;;;;;;;9.15;2.33;;;;;;;;;;5046057;28;20041;-72
2023/03/26 03:41:44;;;;;;;10.15;2.80;;;;;;;;;;5044798;28;20427;-72
2023/03/26 03:44:10;;;;;;;9.15;2.50;;;;;;;;;;5046676;28;20090;-72
2023/03/26 03:46:35;;;;;;;8.57;2.38;;;;;;;;;;5045044;28;20419;-72
2023/03/26 03:49:01;;;;;;;10.98;2.35;;;;;;;;;;5045149;28;20052;-72
2023/03/26 03:51:27;;;;;;;12.85;2.50;;;;;;;;;;5079452;28;20056;-72
2023/03/26 03:53:54;;;;;;;6.63;2.40;;;;;;;;;;5066888;28;20056;-72
2023/03/26 03:56:22;;;;;;;9.38;3.35;;;;;;;;;;5081584;28;20029;-72
2023/03/26 03:58:49;;;;;;;10.63;2.47;;;;;;;;;;5067166;28;20093;-72
2023/03/26 04:01:15;;;;;;;8.40;2.50;;;;;;;;;;5066090;28;20718;-72
2023/03/26 04:03:44;;;;;;;7.70;1.95;;;;;;;;;;5066459;28;20066;-72
2023/03/26 04:06:11;;;;;;;6.35;1.73;;;;;;;;;;5064335;28;20085;-72
2023/03/26 04:08:37;;;;;;;8.15;1.70;;;;;;;;;;5065586;28;20131;-72
2023/03/26 04:11:03;;;;;;;9.82;2.10;;;;;;;;;;5064185;28;20124;-72
2023/03/26 04:13:28;;;;;;;8.50;2.22;;;;;;;;;;5066180;28;20030;-72
2023/03/26 04:15:54;;;;;;;10.30;2.80;;;;;;;;;;5065902;28;20024;-72
2023/03/26 04:18:21;;;;;;;10.48;3.83;;;;;;;;;;5063090;28;20048;-72
2023/03/26 04:20:46;;;;;;;20.08;4.80;;;;;;;;;;5052393;28;20555;-72
2023/03/26 04:23:13;;;;;;;12.73;3.83;;;;;;;;;;5052877;28;20553;-72
2023/03/26 04:25:45;;;;;;;12.02;3.22;;;;;;;;;;5066239;28;20056;-72
2023/03/26 04:28:25;;;;;;;7.32;2.05;;;;;;;;;;5065095;28;20048;-72
2023/03/26 04:30:53;;;;;;;6.88;2.20;;;;;;;;;;5065668;28;20067;-72
2023/03/26 04:33:19;;;;;;;10.05;2.60;;;;;;;;;;5066646;28;20036;-72
2023/03/26 04:35:47;;;;;;;10.88;2.10;;;;;;;;;;5065048;28;20408;-72
2023/03/26 04:38:15;;;;;;;9.38;2.10;;;;;;;;;;5066045;28;20045;-72
2023/03/26 04:40:46;;;;;;;4.75;1.48;;;;;;;;;;5065628;28;20133;-72
2023/03/26 04:43:15;;;;;;;7.63;1.60;;;;;;;;;;5065855;28;20032;-72
2023/03/26 04:45:40;;;;;;;2.15;1.00;;;;;;;;;;5065432;28;20055;-72
2023/03/26 04:48:13;;;;;;;7.70;1.40;;;;;;;;;;5065607;28;20032;-72
2023/03/26 04:50:39;;;;;;;1.65;0.70;;;;;;;;;;5065695;28;20067;-72
2023/03/26 04:53:04;;;;;;;6.50;0.82;;;;;;;;;;5064028;28;20523;-73
2023/03/26 04:56:05;;;;;;;6.45;1.50;;;;;;;;;;5075178;28;20027;-72
2023/03/26 04:58:32;;;;;;;6.68;0.90;;;;;;;;;;5061655;28;20135;-72
2023/03/26 05:01:00;;;;;;;4.25;1.27;;;;;;;;;;5086025;28;20028;-72
2023/03/26 05:03:31;;;;;;;1.45;1.00;;;;;;;;;;5084698;28;20031;-72
2023/03/26 05:05:58;;;;;;;2.75;0.90;;;;;;;;;;5064112;28;20123;-71
2023/03/26 05:08:23;;;;;;;3.28;1.45;;;;;;;;;;5065695;28;20032;-72
2023/03/26 05:10:48;;;;;;;5.07;1.70;;;;;;;;;;5064154;28;20098;-72
2023/03/26 05:13:14;;;;;;;5.50;2.38;;;;;;;;;;5064113;28;20027;-72
2023/03/26 05:15:39;;;;;;;6.32;2.58;;;;;;;;;;5064322;28;20108;-72
2023/03/26 05:18:07;;;;;;;9.88;2.63;;;;;;;;;;5066261;28;20037;-72
2023/03/26 05:20:33;;;;;;;11.27;2.42;;;;;;;;;;5064963;28;20052;-72
2023/03/26 05:22:58;;;;;;;4.53;2.15;;;;;;;;;;5065281;28;20040;-72
2023/03/26 05:25:24;;;;;;;7.63;2.20;;;;;;;;;;5071770;28;20034;-72
2023/03/26 05:27:50;;;;;;;6.57;2.30;;;;;;;;;;5065432;28;20081;-72
2023/03/26 05:30:17;;;;;;;1.92;0.75;;;;;;;;;;5065595;28;20044;-72
2023/03/26 05:32:43;;;;;;;4.53;1.40;;;;;;;;;;5065440;28;20037;-72
2023/03/26 05:35:10;;;;;;;4.68;1.08;;;;;;;;;;5065195;28;20036;-72
2023/03/26 05:37:37;;;;;;;1.58;0.75;;;;;;;;;;5063839;28;20028;-71
2023/03/26 05:40:08;;;;;;;2.67;0.90;;;;;;;;;;5063841;28;20051;-72
2023/03/26 05:42:33;;;;;;;4.10;1.17;;;;;;;;;;5065199;28;20044;-72
2023/03/26 05:44:59;;;;;;;2.05;0.68;;;;;;;;;;5063899;28;20036;-72
2023/03/26 05:47:26;;;;;;;2.25;0.80;;;;;;;;;;5064937;28;20048;-72
2023/03/26 05:49:51;;;;;;;3.92;1.05;;;;;;;;;;5065182;28;20039;-72
2023/03/26 05:52:17;;;;;;;1.98;0.57;;;;;;;;;;5068651;28;20041;-72
2023/03/26 05:54:43;;;;;;;1.45;0.70;;;;;;;;;;5069004;28;20047;-73
2023/03/26 05:57:08;;;;;;;1.17;0.70;;;;;;;;;;5069201;28;20048;-72
2023/03/26 05:59:34;;;;;;;6.07;0.77;;;;;;;;;;5061889;28;20037;-72
2023/03/26 06:01:59;;;;;;;2.08;0.63;;;;;;;;;;5067092;28;20037;-72
2023/03/26 06:04:24;;;;;;;2.38;1.00;;;;;;;;;;5067484;28;20058;-72
2023/03/26 06:06:51;;;;;;;1.95;0.60;;;;;;;;;;5069235;28;20033;-72
2023/03/26 06:09:17;;;;;;;1.65;0.70;;;;;;;;;;5068199;28;20089;-72
2023/03/26 06:11:42;;;;;;;1.77;0.47;;;;;;;;;;5068987;28;20032;-73
2023/03/26 06:14:08;;;;;;;1.42;0.60;;;;;;;;;;5067974;28;20048;-72
2023/03/26 06:16:34;;;;;;;0.43;0.43;;;;;;;;;;5067510;28;20123;-72
2023/03/26 06:18:59;;;;;;;2.47;0.70;;;;;;;;;;5068050;28;20103;-72
2023/03/26 06:21:25;;;;;;;1.92;0.80;;;;;;;;;;5065242;28;20453;-72
2023/03/26 06:23:50;;;;;;;5.22;1.00;;;;;;;;;;5067294;28;20040;-72
2023/03/26 06:26:16;;;;;;;4.82;1.48;;;;;;;;;;5066346;28;20037;-72
2023/03/26 06:28:41;;;;;;;3.05;0.90;;;;;;;;;;5067429;28;20028;-72
2023/03/26 06:31:06;;;;;;;1.73;0.80;;;;;;;;;;5064914;28;20036;-72
2023/03/26 06:33:32;;;;;;;1.88;0.80;;;;;;;;;;5068639;28;20063;-72
2023/03/26 06:35:57;;;;;;;0.77;0.50;;;;;;;;;;5067354;28;20029;-72
2023/03/26 06:38:23;;;;;;;2.88;1.05;;;;;;;;;;5068775;28;20040;-72
2023/03/26 06:40:49;;;;;;;2.17;0.90;;;;;;;;;;5065622;28;20047;-72
2023/03/26 06:43:14;;;;;;;1.98;0.90;;;;;;;;;;5070366;28;20768;-72
2023/03/26 06:45:39;;;;;;;0.38;0.38;;;;;;;;;;5087796;28;20036;-72
2023/03/26 06:48:05;;;;;;;1.27;0.80;;;;;;;;;;5088071;28;20047;-72
2023/03/26 06:50:31;;;;;;;2.92;0.70;;;;;;;;;;5087090;28;20036;-72
2023/03/26 06:52:57;;;;;;;3.53;0.90;;;;;;;;;;5088065;28;20040;-72
2023/03/26 06:55:23;;;;;;;0.90;0.43;;;;;;;;;;5071739;28;20025;-72
2023/03/26 06:57:50;;;;;;;0.80;0.60;;;;;;;;;;5067701;28;20048;-72
2023/03/26 07:00:16;;;;;;;4.95;1.00;;;;;;;;;;5065944;28;20419;-72
2023/03/26 07:02:42;;;;;;;2.28;0.82;;;;;;;;;;5065955;28;20044;-73
2023/03/26 07:05:07;;;;;;;1.52;0.60;;;;;;;;;;5069660;28;20037;-72
2023/03/26 07:07:32;;;;;;;3.70;0.77;;;;;;;;;;5067665;28;20103;-73
2023/03/26 07:09:58;;;;;;;1.30;0.80;;;;;;;;;;5068416;28;20024;-72
2023/03/26 07:12:24;;;;;;;2.92;0.75;;;;;;;;;;5057325;28;20538;-72
2023/03/26 07:14:49;;;;;;;4.25;1.00;;;;;;;;;;5065198;28;20033;-72
2023/03/26 07:17:15;;;;;;;0.80;0.60;;;;;;;;;;5067778;28;20059;-72
2023/03/26 07:19:40;;;;;;;2.10;1.00;;;;;;;;;;5067942;28;20044;-72
2023/03/26 07:22:06;;;;;;;3.08;1.10;;;;;;;;;;5068068;28;20033;-72
2023/03/26 07:24:31;;;;;;;2.08;0.98;;;;;;;;;;5067451;28;20520;-72
2023/03/26 07:27:10;;;;;;;2.50;0.90;;;;;;;;;;5067586;28;20052;-72
2023/03/26 07:29:44;;;;;;;4.05;1.42;;;;;;;;;;5066100;28;20036;-72
2023/03/26 07:32:27;;;;;;;1.30;0.77;;;;;;;;;;5085550;28;20525;-72
2023/03/26 07:35:03;;;;;;;7.60;1.40;;;;;;;;;;5087069;28;20690;-72
2023/03/26 07:37:46;;;;;;;3.95;1.50;;;;;;;;;;5087081;28;20126;-72
2023/03/26 07:40:30;;;;;;;2.00;0.88;;;;;;;;;;5087744;28;20636;-72
2023/03/26 07:43:32;;;;;;;3.10;0.93;;;;;;;;;;5069244;28;20530;-72
2023/03/26 07:45:58;;;;;;;1.38;0.93;;;;;;;;;;5070834;28;20033;-72
2023/03/26 07:48:26;;;;;;;3.42;1.00;;;;;;;;;;5082296;28;20051;-72
2023/03/26 07:50:52;;;;;;;3.72;0.90;;;;;;;;;;5066004;28;20039;-72
2023/03/26 07:53:18;;;;;;;1.77;1.15;;;;;;;;;;5057744;28;20122;-72
2023/03/26 07:55:50;;;;;;;1.73;0.80;;;;;;;;;;5045274;28;20495;-72
2023/03/26 07:58:34;;;;;;;0.80;0.70;;;;;;;;;;5045082;28;20045;-72
2023/03/26 08:01:11;;;;;;;3.08;1.05;;;;;;;;;;5061946;28;20128;-72
2023/03/26 08:04:04;;;;;;;3.67;0.88;;;;;;;;;;5045138;28;20124;-72
2023/03/26 08:06:34;;;;;;;3.85;1.40;;;;;;;;;;5035432;28;20032;-72
2023/03/26 08:09:24;;;;;;;1.75;1.20;;;;;;;;;;5047213;28;21410;-72
2023/03/26 08:12:29;;;;;;;2.35;0.80;;;;;;;;;;5055542;28;20025;-72
2023/03/26 08:15:09;;;;;;;2.78;1.30;;;;;;;;;;5064782;28;20036;-72
2023/03/26 08:17:46;;;;;;;4.13;1.42;;;;;;;;;;5064816;28;20107;-72
2023/03/26 08:20:24;;;;;;;4.15;1.25;;;;;;;;;;5061936;28;20113;-72
2023/03/26 08:22:56;;;;;;;2.50;1.00;;;;;;;;;;5058674;28;20091;-72
2023/03/26 08:25:26;;;;;;;1.80;1.15;;;;;;;;;;5060504;28;20028;-71
2023/03/26 08:28:11;;;;;;;3.20;1.60;;;;;;;;;;5081287;28;20074;-72
2023/03/26 08:30:36;;;;;;;1.92;1.23;;;;;;;;;;5064872;28;20511;-71
2023/03/26 08:33:11;;;;;;;7.32;1.80;;;;;;;;;;5063997;28;20032;-72
2023/03/26 08:35:43;;;;;;;5.68;1.80;;;;;;;;;;5060122;28;20128;-72
2023/03/26 08:38:09;;;;;;;3.42;1.33;;;;;;;;;;5063158;28;20029;-71
2023/03/26 08:40:56;;;;;;;2.63;1.70;;;;;;;;;;5061486;28;20499;-71
2023/03/26 08:43:56;;;;;;;2.58;1.40;;;;;;;;;;5060047;28;20024;-72
2023/03/26 08:46:21;;;;;;;1.95;1.10;;;;;;;;;;5056912;28;20020;-72
2023/03/26 08:48:58;;;;;;;3.53;1.27;;;;;;;;;;5062928;28;20525;-71
2023/03/26 08:51:26;;;;;;;1.80;1.35;;;;;;;;;;5059227;28;20075;-72
2023/03/26 08:54:20;;;;;;;2.20;1.42;;;;;;;;;;5058662;28;20032;-72
2023/03/26 08:56:51;;;;;;;3.25;1.60;;;;;;;;;;5053371;28;20037;-71
2023/03/26 08:59:50;;;;;;;3.25;1.63;;;;;;;;;;5061777;28;20051;-72
2023/03/26 09:02:19;;;;;;;2.75;1.42;;;;;;;;;;5062617;28;20136;-72
2023/03/26 09:05:24;;;;;;;3.20;1.50;;;;;;;;;;5062329;28;20036;-71
2023/03/26 09:08:13;;;;;;;5.28;1.50;;;;;;;;;;5059104;28;20040;-71
2023/03/26 09:10:47;;;;;;;4.00;1.60;;;;;;;;;;5059606;28;20024;-72
2023/03/26 09:13:23;;;;;;;3.05;1.90;;;;;;;;;;5059998;28;20090;-71
2023/03/26 09:16:35;;;;;;;5.60;1.77;;;;;;;;;;5059931;28;20068;-72
2023/03/26 09:19:57;;;;;;;4.68;1.98;;;;;;;;;;5051018;28;20048;-71
2023/03/26 09:22:57;;;;;;;3.30;1.50;;;;;;;;;;4972335;28;20138;-72
2023/03/26 09:25:25;;;;;;;4.53;2.15;;;;;;;;;;4953523;28;20132;-72
2023/03/26 09:28:20;;;;;;;5.53;2.33;;;;;;;;;;5040738;28;20033;-72
2023/03/26 09:31:13;;;;;;;2.95;1.90;;;;;;;;;;5059824;28;20451;-71
2023/03/26 09:34:12;;;;;;;4.13;2.20;;;;;;;;;;5058594;28;20036;-71
2023/03/26 09:36:55;;;;;;;2.72;1.75;;;;;;;;;;5070668;28;20623;-72
2023/03/26 09:39:34;;;;;;;3.47;1.98;;;;;;;;;;5060315;28;20037;-71
2023/03/26 09:42:08;;;;;;;7.18;2.42;;;;;;;;;;5060559;28;20174;-72
2023/03/26 09:44:57;;;;;;;4.68;2.30;;;;;;;;;;5059549;28;20028;-71
2023/03/26 09:47:25;;;;;;;4.78;3.03;;;;;;;;;;5053273;28;20092;-72
2023/03/26 09:49:50;;;;;;;3.47;2.25;;;;;;;;;;5058450;28;20036;-72
2023/03/26 09:52:57;;;;;;;3.70;2.00;;;;;;;;;;5055169;28;20028;-72
2023/03/26 09:55:41;;;;;;;18.17;2.50;;;;;;;;;;5060371;28;20122;-71
2023/03/26 09:58:18;;;;;;;4.00;2.40;;;;;;;;;;5080012;28;20143;-71
2023/03/26 10:01:13;;;;;;;4.68;2.38;;;;;;;;;;5063260;28;20566;-72
2023/03/26 10:03:59;;;;;;;5.45;2.80;;;;;;;;;;5056989;28;20531;-72
2023/03/26 10:06:38;;;;;;;6.50;2.63;;;;;;;;;;5058424;28;20024;-73
2023/03/26 10:09:28;;;;;;;6.30;2.55;;;;;;;;;;5060920;28;20037;-73
2023/03/26 10:12:06;;;;;;;8.70;2.47;;;;;;;;;;5057390;28;20044;-73
2023/03/26 10:14:47;;;;;;;3.22;2.42;;;;;;;;;;5061077;28;20474;-73
2023/03/26 10:17:45;;;;;;;5.28;2.13;;;;;;;;;;5060801;28;20040;-73
2023/03/26 10:20:26;;;;;;;4.43;2.50;;;;;;;;;;5003261;28;20717;-74
2023/03/26 10:23:07;;;;;;;5.40;2.65;;;;;;;;;;5058436;28;20633;-74
2023/03/26 10:25:41;;;;;;;4.50;2.47;;;;;;;;;;5063732;28;20776;-74
2023/03/26 10:28:31;;;;;;;5.65;3.10;;;;;;;;;;5058717;28;20040;-74
2023/03/26 10:31:28;;;;;;;4.72;2.63;;;;;;;;;;5057882;28;20561;-73
2023/03/26 10:34:09;;;;;;;4.47;2.53;;;;;;;;;;5055924;28;20107;-73
2023/03/26 10:36:53;;;;;;;3.35;1.80;;;;;;;;;;5058424;28;20048;-73
2023/03/26 10:39:32;;;;;;;4.88;2.85;;;;;;;;;;5050601;28;20055;-73
2023/03/26 10:42:35;;;;;;;4.55;2.83;;;;;;;;;;5061366;28;20135;-73
2023/03/26 10:45:38;;;;;;;5.43;2.83;;;;;;;;;;5059415;28;20086;-73
2023/03/26 10:48:23;;;;;;;3.75;2.40;;;;;;;;;;5064338;28;20044;-74
2023/03/26 10:51:17;;;;;;;3.65;2.15;;;;;;;;;;5065363;28;20075;-73
2023/03/26 10:53:50;;;;;;;2.90;1.95;;;;;;;;;;5057677;28;20131;-73
2023/03/26 10:56:30;;;;;;;1.87;1.37;;;;;;;;;;5061608;28;20041;-73
2023/03/26 10:58:56;;;;;;;2.03;1.05;;;;;;;;;;5064602;28;20557;-73
2023/03/26 11:01:24;;;;;;;2.08;1.40;;;;;;;;;;5066293;28;20028;-73
2023/03/26 11:03:55;;;;;;;2.72;1.50;;;;;;;;;;5065243;28;20032;-72
2023/03/26 11:06:47;;;;;;;2.72;1.23;;;;;;;;;;5067009;28;20581;-73
2023/03/26 11:09:39;;;;;;;1.40;1.20;;;;;;;;;;5058188;28;20733;-72
2023/03/26 11:12:20;;;;;;;3.78;1.10;;;;;;;;;;5058647;28;20063;-73
2023/03/26 11:14:57;;;;;;;2.38;1.25;;;;;;;;;;5064280;28;20059;-72
2023/03/26 11:18:01;;;;;;;1.92;1.25;;;;;;;;;;5065924;28;20040;-73
2023/03/26 11:20:32;;;;;;;3.17;1.38;;;;;;;;;;5034587;28;20072;-73
2023/03/26 11:23:35;;;;;;;2.85;1.70;;;;;;;;;;5081922;28;20036;-73
2023/03/26 11:26:12;;;;;;;2.67;1.25;;;;;;;;;;5006333;28;20041;-73
2023/03/26 11:29:09;;;;;;;3.38;1.65;;;;;;;;;;5060145;28;20051;-73
2023/03/26 11:31:59;;;;;;;4.38;2.22;;;;;;;;;;5066663;28;20046;-73
2023/03/26 11:34:35;;;;;;;5.97;2.38;;;;;;;;;;5066859;28;20566;-73
2023/03/26 11:37:07;;;;;;;3.95;2.05;;;;;;;;;;5066613;28;20032;-73
2023/03/26 11:39:44;;;;;;;4.28;1.85;;;;;;;;;;5054335;28;20043;-73
2023/03/26 11:42:13;;;;;;;7.68;2.70;;;;;;;;;;5052083;28;20738;-73
2023/03/26 11:44:45;;;;;;;6.45;2.40;;;;;;;;;;5057914;28;20044;-72
2023/03/26 11:47:17;;;;;;;5.78;2.38;;;;;;;;;;5066293;28;20545;-72
2023/03/26 11:49:45;;;;;;;8.32;2.70;;;;;;;;;;5064573;28;20120;-73
2023/03/26 11:52:11;;;;;;;4.95;2.33;;;;;;;;;;5064681;28;20035;-70
2023/03/26 11:54:37;;;;;;;5.53;2.65;;;;;;;;;;5061176;28;20036;-71
2023/03/26 11:57:07;;;;;;;3.15;1.98;;;;;;;;;;5062111;28;20114;-72
2023/03/26 11:59:37;;;;;;;3.92;2.00;;;;;;;;;;5063963;28;20531;-72
2023/03/26 12:02:03;;;;;;;3.05;1.67;;;;;;;;;;5064900;28;20036;-72
2023/03/26 12:04:36;;;;;;;2.40;1.63;;;;;;;;;;5061364;28;20028;-72
2023/03/26 12:07:15;;;;;;;2.58;1.50;;;;;;;;;;5060316;28;20511;-72
2023/03/26 12:09:58;;;;;;;2.90;1.70;;;;;;;;;;5051977;28;20519;-72
2023/03/26 12:12:25;;;;;;;2.53;1.45;;;;;;;;;;5061447;28;20029;-72
2023/03/26 12:14:53;;;;;;;3.15;1.73;;;;;;;;;;5064331;28;20068;-72
2023/03/26 12:17:36;;;;;;;3.33;2.00;;;;;;;;;;5063150;28;20051;-71
2023/03/26 12:20:23;;;;;;;3.60;2.03;;;;;;;;;;5050712;28;20556;-72
2023/03/26 12:22:50;;;;;;;5.35;1.65;;;;;;;;;;5044721;28;20130;-73
2023/03/26 12:25:20;;;;;;;3.53;1.98;;;;;;;;;;5044680;28;20032;-73
2023/03/26 12:27:55;;;;;;;3.83;1.58;;;;;;;;;;5042903;28;20051;-73
2023/03/26 12:30:26;;;;;;;2.15;1.48;;;;;;;;;;5042364;28;20048;-73
2023/03/26 12:32:56;;;;;;;1.83;1.20;;;;;;;;;;5043580;28;20037;-73
2023/03/26 12:35:28;;;;;;;2.70;1.30;;;;;;;;;;5043250;28;20037;-73
2023/03/26 12:37:56;;;;;;;1.63;1.13;;;;;;;;;;5062358;28;20591;-73
2023/03/26 12:40:32;;;;;;;1.80;1.30;;;;;;;;;;5062258;28;20069;-73
2023/03/26 12:43:03;;;;;;;2.35;1.23;;;;;;;;;;5080156;28;20032;-73
2023/03/26 12:45:41;;;;;;;3.60;1.35;;;;;;;;;;5062822;28;20541;-73
2023/03/26 12:48:10;;;;;;;5.22;2.08;;;;;;;;;;5058740;28;20047;-73
2023/03/26 12:50:44;;;;;;;4.95;1.50;;;;;;;;;;5063855;28;20062;-73
2023/03/26 12:53:54;;;;;;;3.33;1.60;;;;;;;;;;5063185;28;20124;-73
2023/03/26 12:56:35;;;;;;;2.83;1.58;;;;;;;;;;5058249;28;20094;-73
2023/03/26 12:59:22;;;;;;;4.32;1.70;;;;;;;;;;5064210;28;20051;-72
2023/03/26 13:02:09;;;;;;;3.33;1.80;;;;;;;;;;5062879;28;20070;-72
2023/03/26 13:04:59;;;;;;;3.60;1.85;;;;;;;;;;5064362;28;20131;-73
2023/03/26 13:07:39;;;;;;;3.03;2.00;;;;;;;;;;5064131;28;20017;-72
2023/03/26 13:10:36;;;;;;;4.47;1.67;;;;;;;;;;5065362;28;20017;-72
2023/03/26 13:13:38;;;;;;;3.50;1.80;;;;;;;;;;5063178;28;20650;-72
2023/03/26 13:16:20;;;;;;;3.88;1.80;;;;;;;;;;5062515;28;20127;-72
2023/03/26 13:19:07;;;;;;;1.65;1.20;;;;;;;;;;5063418;28;20048;-72
2023/03/26 13:21:56;;;;;;;2.88;1.27;;;;;;;;;;5064221;28;20063;-72
2023/03/26 13:24:40;;;;;;;2.45;1.40;;;;;;;;;;5064995;28;20039;-72
2023/03/26 13:27:25;;;;;;;3.42;1.23;;;;;;;;;;5062670;28;20123;-72
2023/03/26 13:30:10;;;;;;;3.47;1.27;;;;;;;;;;5061641;28;20033;-72
2023/03/26 13:33:13;;;;;;;2.38;1.23;;;;;;;;;;5063182;28;20056;-72
2023/03/26 13:35:45;;;;;;;1.88;1.38;;;;;;;;;;5062801;28;20094;-72
2023/03/26 13:38:17;;;;;;;2.75;1.38;;;;;;;;;;5056229;28;20036;-70
2023/03/26 13:41:01;;;;;;;2.83;1.38;;;;;;;;;;5050762;28;20098;-71
2023/03/26 13:43:32;;;;;;;2.58;1.30;;;;;;;;;;5054243;28;20028;-70
2023/03/26 13:46:21;;;;;;;3.03;1.38;;;;;;;;;;5056320;28;20032;-70
2023/03/26 13:48:53;;;;;;;1.65;1.15;;;;;;;;;;5042717;28;20755;-71
2023/03/26 13:51:35;;;;;;;2.58;1.10;;;;;;;;;;5040857;28;20032;-70
2023/03/26 13:54:22;;;;;;;1.90;1.33;;;;;;;;;;5050707;28;20716;-70
2023/03/26 13:56:57;;;;;;;2.13;1.42;;;;;;;;;;5051943;28;20127;-70
2023/03/26 13:59:38;;;;;;;3.40;2.80;;;;;;;;;;5048169;28;20397;-71
2023/03/26 14:02:24;;;;;;;4.00;2.25;;;;;;;;;;5049920;28;20102;-72
2023/03/26 14:04:57;;;;;;;4.55;2.72;;;;;;;;;;5050257;28;20055;-71
2023/03/26 14:07:47;;;;;;;3.75;2.22;;;;;;;;;;5056286;28;20033;-74
2023/03/26 14:10:20;;;;;;;5.20;2.80;;;;;;;;;;5060818;28;20023;-73
2023/03/26 14:12:50;;;;;;;4.63;2.30;;;;;;;;;;5062792;28;20037;-73
2023/03/26 14:16:04;;;;;;;9.13;3.17;;;;;;;;;;5064948;28;20046;-72
2023/03/26 14:18:44;;;;;;;7.75;3.45;;;;;;;;;;5009453;28;20049;-73
2023/03/26 14:21:19;;;;;;;3.97;2.40;;;;;;;;;;5061886;28;20130;-73
2023/03/26 14:24:12;;;;;;;3.95;1.92;;;;;;;;;;5062197;28;20131;-73
2023/03/26 14:26:57;;;;;;;6.82;2.20;;;;;;;;;;5064393;28;20044;-72
2023/03/26 14:29:36;;;;;;;3.90;2.50;;;;;;;;;;5060573;28;20377;-74
2023/03/26 14:32:28;;;;;;;5.88;2.95;;;;;;;;;;5062678;28;20037;-75
2023/03/26 14:35:10;;;;;;;4.78;2.55;;;;;;;;;;5057277;28;20036;-74
2023/03/26 14:37:38;;;;;;;5.75;3.00;;;;;;;;;;5064031;28;20745;-72
2023/03/26 14:40:31;;;;;;;4.78;3.10;;;;;;;;;;5065312;28;20031;-72
2023/03/26 14:43:28;;;;;;;5.67;3.43;;;;;;;;;;5062914;28;20086;-72
2023/03/26 14:46:16;;;;;;;8.35;3.83;;;;;;;;;;5057442;28;20520;-72
2023/03/26 14:48:54;;;;;;;6.78;3.80;;;;;;;;;;5057852;28;20560;-72
2023/03/26 14:51:51;;;;;;;8.30;3.13;;;;;;;;;;5061770;28;20036;-72
2023/03/26 14:54:20;;;;;;;7.53;3.80;;;;;;;;;;5060951;28;20650;-70
2023/03/26 14:57:23;;;;;;;5.72;3.20;;;;;;;;;;5049007;28;20040;-72
2023/03/26 15:00:01;;;;;;;7.28;3.63;;;;;;;;;;5050534;28;20117;-71
2023/03/26 15:02:55;;;;;;;5.90;3.53;;;;;;;;;;5055346;28;20044;-71
2023/03/26 15:05:39;;;;;;;7.40;3.63;;;;;;;;;;5078195;28;20058;-71
2023/03/26 15:08:36;;;;;;;8.00;3.10;;;;;;;;;;5063199;28;20036;-71
2023/03/26 15:11:04;;;;;;;6.25;2.95;;;;;;;;;;5063767;28;20117;-71
2023/03/26 15:13:35;;;;;;;7.45;3.00;;;;;;;;;;5063489;28;20021;-71
2023/03/26 15:16:15;;;;;;;6.80;3.20;;;;;;;;;;5064334;28;20024;-71
2023/03/26 15:18:43;;;;;;;7.80;3.50;;;;;;;;;;5057100;28;20032;-71
2023/03/26 15:21:24;;;;;;;4.75;2.53;;;;;;;;;;5064158;28;20896;-71
2023/03/26 15:24:11;;;;;;;5.40;2.72;;;;;;;;;;5062485;28;20068;-71
2023/03/26 15:26:48;;;;;;;5.80;3.30;;;;;;;;;;5063004;28;20742;-71